sensor_id;sensor_type;location;lat;lon;timestamp;P1;durP1;ratioP1;P2;durP2;ratioP2
50853;SDS011;44154;45.506;-122.806;2023-01-13T00:02:22;4.72;;;1.80;;
50853;SDS011;44154;45.506;-122.806;2023-01-13T00:04:48;5.35;;;1.77;;
50853;SDS011;44154;45.506;-122.806;2023-01-13T00:07:16;6.07;;;1.63;;
50853;SDS011;44154;45.506;-122.806;2023-01-13T00:09:42;5.88;;;1.70;;
50853;SDS011;44154;45.506;-122.806;2023-01-13T00:12:08;4.50;;;1.50;;
50853;SDS011;44154;45.506;-122.806;2023-01-13T00:14:35;2.85;;;1.27;;
50853;SDS011;44154;45.506;-122.806;2023-01-13T00:17:01;1.92;;;1.00;;
50853;SDS011;44154;45.506;-122.806;2023-01-13T00:19:28;3.90;;;1.30;;
50853;SDS011;44154;45.506;-122.806;2023-01-13T00:21:54;5.30;;;1.50;;
50853;SDS011;44154;45.506;-122.806;2023-01-13T00:24:21;2.97;;;1.20;;
50853;SDS011;44154;45.506;-122.806;2023-01-13T00:26:47;1.92;;;1.35;;
50853;SDS011;44154;45.506;-122.806;2023-01-13T00:29:13;2.80;;;1.10;;
50853;SDS011;44154;45.506;-122.806;2023-01-13T00:31:39;3.50;;;1.35;;
50853;SDS011;44154;45.506;-122.806;2023-01-13T00:34:05;2.70;;;1.10;;
50853;SDS011;44154;45.506;-122.806;2023-01-13T00:36:32;3.08;;;1.20;;
50853;SDS011;44154;45.506;-122.806;2023-01-13T00:38:58;4.60;;;1.33;;
50853;SDS011;44154;45.506;-122.806;2023-01-13T00:41:24;3.00;;;1.35;;
50853;SDS011;44154;45.506;-122.806;2023-01-13T00:43:51;4.22;;;1.40;;
50853;SDS011;44154;45.506;-122.806;2023-01-13T00:46:19;3.67;;;1.10;;
50853;SDS011;44154;45.506;-122.806;2023-01-13T00:48:46;5.00;;;1.33;;
50853;SDS011;44154;45.506;-122.806;2023-01-13T00:51:14;4.93;;;1.23;;
50853;SDS011;44154;45.506;-122.806;2023-01-13T00:53:46;4.60;;;1.58;;
50853;SDS011;44154;45.506;-122.806;2023-01-13T00:58:40;4.07;;;1.30;;
50853;SDS011;44154;45.506;-122.806;2023-01-13T01:01:09;2.67;;;1.10;;
50853;SDS011;44154;45.506;-122.806;2023-01-13T01:03:38;3.03;;;1.10;;
50853;SDS011;44154;45.506;-122.806;2023-01-13T01:06:10;2.25;;;1.00;;
50853;SDS011;44154;45.506;-122.806;2023-01-13T01:08:38;3.15;;;1.30;;
50853;SDS011;44154;45.506;-122.806;2023-01-13T01:11:06;3.17;;;1.20;;
50853;SDS011;44154;45.506;-122.806;2023-01-13T01:13:37;6.63;;;1.38;;
50853;SDS011;44154;45.506;-122.806;2023-01-13T01:16:04;6.97;;;1.60;;
50853;SDS011;44154;45.506;-122.806;2023-01-13T01:18:35;4.90;;;1.27;;
50853;SDS011;44154;45.506;-122.806;2023-01-13T01:21:03;2.97;;;0.93;;
50853;SDS011;44154;45.506;-122.806;2023-01-13T01:23:31;6.78;;;1.65;;
50853;SDS011;44154;45.506;-122.806;2023-01-13T01:26:02;5.25;;;1.30;;
50853;SDS011;44154;45.506;-122.806;2023-01-13T01:28:32;4.22;;;1.30;;
50853;SDS011;44154;45.506;-122.806;2023-01-13T01:30:59;4.25;;;1.25;;
50853;SDS011;44154;45.506;-122.806;2023-01-13T01:33:30;5.00;;;1.67;;
50853;SDS011;44154;45.506;-122.806;2023-01-13T01:35:56;4.88;;;1.27;;
50853;SDS011;44154;45.506;-122.806;2023-01-13T01:38:22;6.05;;;2.17;;
50853;SDS011;44154;45.506;-122.806;2023-01-13T01:40:48;4.82;;;2.20;;
50853;SDS011;44154;45.506;-122.806;2023-01-13T01:43:15;6.22;;;2.03;;
50853;SDS011;44154;45.506;-122.806;2023-01-13T01:46:02;3.83;;;2.20;;
50853;SDS011;44154;45.506;-122.806;2023-01-13T01:48:29;3.35;;;2.05;;
50853;SDS011;44154;45.506;-122.806;2023-01-13T01:51:02;3.75;;;2.08;;
50853;SDS011;44154;45.506;-122.806;2023-01-13T01:53:29;3.13;;;1.90;;
50853;SDS011;44154;45.506;-122.806;2023-01-13T01:55:57;2.72;;;1.73;;
50853;SDS011;44154;45.506;-122.806;2023-01-13T01:58:29;2.58;;;1.70;;
50853;SDS011;44154;45.506;-122.806;2023-01-13T02:01:02;1.95;;;1.30;;
50853;SDS011;44154;45.506;-122.806;2023-01-13T02:03:28;2.20;;;1.40;;
50853;SDS011;44154;45.506;-122.806;2023-01-13T02:05:54;1.77;;;1.20;;
50853;SDS011;44154;45.506;-122.806;2023-01-13T02:08:21;2.05;;;1.35;;
50853;SDS011;44154;45.506;-122.806;2023-01-13T02:10:49;1.70;;;1.00;;
50853;SDS011;44154;45.506;-122.806;2023-01-13T02:13:18;1.48;;;0.90;;
50853;SDS011;44154;45.506;-122.806;2023-01-13T02:18:43;1.30;;;0.77;;
50853;SDS011;44154;45.506;-122.806;2023-01-13T02:22:01;1.08;;;0.70;;
50853;SDS011;44154;45.506;-122.806;2023-01-13T02:38:55;1.05;;;0.65;;
50853;SDS011;44154;45.506;-122.806;2023-01-13T02:41:30;1.23;;;0.50;;
50853;SDS011;44154;45.506;-122.806;2023-01-13T02:44:25;1.48;;;0.80;;
50853;SDS011;44154;45.506;-122.806;2023-01-13T02:47:31;3.03;;;0.75;;
50853;SDS011;44154;45.506;-122.806;2023-01-13T02:52:25;2.25;;;0.60;;
50853;SDS011;44154;45.506;-122.806;2023-01-13T02:54:58;2.22;;;0.50;;
50853;SDS011;44154;45.506;-122.806;2023-01-13T02:57:28;1.33;;;0.50;;
50853;SDS011;44154;45.506;-122.806;2023-01-13T02:59:58;2.80;;;0.60;;
50853;SDS011;44154;45.506;-122.806;2023-01-13T03:02:27;1.70;;;0.52;;
50853;SDS011;44154;45.506;-122.806;2023-01-13T03:04:54;1.80;;;0.80;;
50853;SDS011;44154;45.506;-122.806;2023-01-13T03:24:29;2.35;;;0.82;;
50853;SDS011;44154;45.506;-122.806;2023-01-13T03:27:04;5.57;;;1.08;;
50853;SDS011;44154;45.506;-122.806;2023-01-13T03:29:37;3.97;;;1.00;;
50853;SDS011;44154;45.506;-122.806;2023-01-13T03:32:24;3.97;;;0.90;;
50853;SDS011;44154;45.506;-122.806;2023-01-13T03:38:09;4.20;;;1.10;;
50853;SDS011;44154;45.506;-122.806;2023-01-13T03:40:44;4.75;;;1.10;;
50853;SDS011;44154;45.506;-122.806;2023-01-13T03:44:00;2.40;;;1.10;;
50853;SDS011;44154;45.506;-122.806;2023-01-13T03:49:16;4.00;;;0.95;;
50853;SDS011;44154;45.506;-122.806;2023-01-13T03:51:48;2.80;;;1.20;;
50853;SDS011;44154;45.506;-122.806;2023-01-13T03:54:20;5.45;;;1.17;;
50853;SDS011;44154;45.506;-122.806;2023-01-13T03:56:51;3.90;;;1.05;;
50853;SDS011;44154;45.506;-122.806;2023-01-13T03:59:23;4.15;;;1.20;;
50853;SDS011;44154;45.506;-122.806;2023-01-13T04:04:46;6.03;;;1.20;;
50853;SDS011;44154;45.506;-122.806;2023-01-13T04:10:06;4.35;;;1.02;;
50853;SDS011;44154;45.506;-122.806;2023-01-13T04:12:44;3.60;;;1.10;;
50853;SDS011;44154;45.506;-122.806;2023-01-13T04:15:27;4.07;;;1.20;;
50853;SDS011;44154;45.506;-122.806;2023-01-13T04:18:29;6.30;;;1.10;;
50853;SDS011;44154;45.506;-122.806;2023-01-13T04:20:50;6.03;;;1.60;;
50853;SDS011;44154;45.506;-122.806;2023-01-13T04:23:19;3.53;;;1.25;;
50853;SDS011;44154;45.506;-122.806;2023-01-13T04:25:46;6.22;;;1.50;;
50853;SDS011;44154;45.506;-122.806;2023-01-13T04:28:13;4.93;;;1.58;;
50853;SDS011;44154;45.506;-122.806;2023-01-13T04:30:41;2.78;;;1.13;;
50853;SDS011;44154;45.506;-122.806;2023-01-13T04:33:08;5.78;;;1.25;;
50853;SDS011;44154;45.506;-122.806;2023-01-13T04:35:34;5.25;;;1.30;;
50853;SDS011;44154;45.506;-122.806;2023-01-13T04:38:01;4.25;;;1.23;;
50853;SDS011;44154;45.506;-122.806;2023-01-13T04:40:28;4.88;;;1.33;;
50853;SDS011;44154;45.506;-122.806;2023-01-13T04:42:54;5.80;;;2.03;;
50853;SDS011;44154;45.506;-122.806;2023-01-13T04:45:21;3.78;;;1.45;;
50853;SDS011;44154;45.506;-122.806;2023-01-13T04:47:47;3.88;;;1.25;;
50853;SDS011;44154;45.506;-122.806;2023-01-13T04:50:13;2.58;;;1.20;;
50853;SDS011;44154;45.506;-122.806;2023-01-13T04:52:44;2.47;;;1.02;;
50853;SDS011;44154;45.506;-122.806;2023-01-13T04:55:14;3.08;;;1.17;;
50853;SDS011;44154;45.506;-122.806;2023-01-13T04:57:40;3.08;;;1.33;;
50853;SDS011;44154;45.506;-122.806;2023-01-13T05:00:07;3.22;;;1.25;;
50853;SDS011;44154;45.506;-122.806;2023-01-13T05:02:35;3.25;;;1.33;;
50853;SDS011;44154;45.506;-122.806;2023-01-13T05:05:02;3.17;;;1.25;;
50853;SDS011;44154;45.506;-122.806;2023-01-13T05:07:29;2.47;;;1.30;;
50853;SDS011;44154;45.506;-122.806;2023-01-13T05:09:55;2.97;;;1.33;;
50853;SDS011;44154;45.506;-122.806;2023-01-13T05:12:22;3.92;;;1.25;;
50853;SDS011;44154;45.506;-122.806;2023-01-13T05:15:23;3.17;;;1.30;;
50853;SDS011;44154;45.506;-122.806;2023-01-13T05:18:08;4.00;;;1.45;;
50853;SDS011;44154;45.506;-122.806;2023-01-13T05:20:34;3.03;;;1.10;;
50853;SDS011;44154;45.506;-122.806;2023-01-13T05:23:00;3.15;;;1.15;;
50853;SDS011;44154;45.506;-122.806;2023-01-13T05:25:45;2.17;;;1.20;;
50853;SDS011;44154;45.506;-122.806;2023-01-13T05:28:13;10.75;;;6.18;;
50853;SDS011;44154;45.506;-122.806;2023-01-13T05:30:41;13.70;;;7.72;;
50853;SDS011;44154;45.506;-122.806;2023-01-13T05:33:09;9.30;;;6.80;;
50853;SDS011;44154;45.506;-122.806;2023-01-13T05:35:37;8.68;;;5.85;;
50853;SDS011;44154;45.506;-122.806;2023-01-13T05:38:04;8.27;;;5.45;;
50853;SDS011;44154;45.506;-122.806;2023-01-13T05:40:30;7.20;;;5.00;;
50853;SDS011;44154;45.506;-122.806;2023-01-13T05:43:15;7.97;;;5.00;;
50853;SDS011;44154;45.506;-122.806;2023-01-13T05:48:33;7.45;;;4.63;;
50853;SDS011;44154;45.506;-122.806;2023-01-13T05:51:02;6.15;;;4.18;;
50853;SDS011;44154;45.506;-122.806;2023-01-13T05:53:30;8.15;;;4.28;;
50853;SDS011;44154;45.506;-122.806;2023-01-13T05:55:56;5.93;;;4.18;;
50853;SDS011;44154;45.506;-122.806;2023-01-13T05:58:23;7.88;;;4.32;;
50853;SDS011;44154;45.506;-122.806;2023-01-13T06:00:51;6.43;;;3.88;;
50853;SDS011;44154;45.506;-122.806;2023-01-13T06:03:18;6.10;;;4.10;;
50853;SDS011;44154;45.506;-122.806;2023-01-13T06:05:45;5.88;;;3.95;;
50853;SDS011;44154;45.506;-122.806;2023-01-13T06:08:12;6.82;;;3.83;;
50853;SDS011;44154;45.506;-122.806;2023-01-13T06:10:38;8.48;;;3.67;;
50853;SDS011;44154;45.506;-122.806;2023-01-13T06:13:04;5.50;;;3.95;;
50853;SDS011;44154;45.506;-122.806;2023-01-13T06:15:31;5.40;;;4.28;;
50853;SDS011;44154;45.506;-122.806;2023-01-13T06:17:57;5.55;;;4.03;;
50853;SDS011;44154;45.506;-122.806;2023-01-13T06:20:26;6.05;;;4.00;;
50853;SDS011;44154;45.506;-122.806;2023-01-13T06:22:52;6.35;;;4.07;;
50853;SDS011;44154;45.506;-122.806;2023-01-13T06:25:29;5.38;;;3.70;;
50853;SDS011;44154;45.506;-122.806;2023-01-13T06:28:03;4.78;;;3.67;;
50853;SDS011;44154;45.506;-122.806;2023-01-13T06:30:31;6.38;;;3.75;;
50853;SDS011;44154;45.506;-122.806;2023-01-13T06:33:03;4.28;;;3.35;;
50853;SDS011;44154;45.506;-122.806;2023-01-13T06:35:33;4.82;;;4.07;;
50853;SDS011;44154;45.506;-122.806;2023-01-13T06:38:01;5.80;;;3.60;;
50853;SDS011;44154;45.506;-122.806;2023-01-13T06:40:32;5.03;;;3.80;;
50853;SDS011;44154;45.506;-122.806;2023-01-13T06:42:59;4.88;;;4.05;;
50853;SDS011;44154;45.506;-122.806;2023-01-13T06:48:15;6.55;;;4.40;;
50853;SDS011;44154;45.506;-122.806;2023-01-13T06:50:42;5.40;;;4.90;;
50853;SDS011;44154;45.506;-122.806;2023-01-13T06:53:08;5.55;;;5.00;;
50853;SDS011;44154;45.506;-122.806;2023-01-13T06:55:35;6.20;;;5.07;;
50853;SDS011;44154;45.506;-122.806;2023-01-13T06:58:01;6.53;;;5.15;;
50853;SDS011;44154;45.506;-122.806;2023-01-13T07:00:27;6.40;;;5.20;;
50853;SDS011;44154;45.506;-122.806;2023-01-13T07:03:03;5.60;;;5.10;;
50853;SDS011;44154;45.506;-122.806;2023-01-13T07:05:33;5.60;;;5.18;;
50853;SDS011;44154;45.506;-122.806;2023-01-13T07:08:00;6.57;;;5.97;;
50853;SDS011;44154;45.506;-122.806;2023-01-13T07:10:26;7.22;;;6.13;;
50853;SDS011;44154;45.506;-122.806;2023-01-13T07:12:52;6.97;;;6.38;;
50853;SDS011;44154;45.506;-122.806;2023-01-13T07:15:36;6.80;;;6.20;;
50853;SDS011;44154;45.506;-122.806;2023-01-13T07:18:02;8.13;;;7.53;;
50853;SDS011;44154;45.506;-122.806;2023-01-13T07:20:29;8.82;;;8.13;;
50853;SDS011;44154;45.506;-122.806;2023-01-13T07:22:56;8.52;;;7.93;;
50853;SDS011;44154;45.506;-122.806;2023-01-13T07:25:22;8.60;;;7.85;;
50853;SDS011;44154;45.506;-122.806;2023-01-13T07:27:48;8.30;;;7.60;;
50853;SDS011;44154;45.506;-122.806;2023-01-13T07:30:14;8.77;;;8.18;;
50853;SDS011;44154;45.506;-122.806;2023-01-13T07:32:41;20.05;;;12.88;;
50853;SDS011;44154;45.506;-122.806;2023-01-13T07:35:07;20.92;;;13.65;;
50853;SDS011;44154;45.506;-122.806;2023-01-13T07:37:34;16.40;;;12.25;;
50853;SDS011;44154;45.506;-122.806;2023-01-13T07:40:03;18.17;;;11.50;;
50853;SDS011;44154;45.506;-122.806;2023-01-13T07:42:29;15.57;;;11.25;;
50853;SDS011;44154;45.506;-122.806;2023-01-13T07:45:14;17.83;;;10.65;;
50853;SDS011;44154;45.506;-122.806;2023-01-13T07:47:40;18.95;;;11.20;;
50853;SDS011;44154;45.506;-122.806;2023-01-13T07:50:06;16.27;;;10.82;;
50853;SDS011;44154;45.506;-122.806;2023-01-13T07:52:33;16.80;;;10.77;;
50853;SDS011;44154;45.506;-122.806;2023-01-13T07:54:59;16.77;;;10.98;;
50853;SDS011;44154;45.506;-122.806;2023-01-13T07:57:25;14.93;;;10.23;;
50853;SDS011;44154;45.506;-122.806;2023-01-13T07:59:52;20.00;;;10.32;;
50853;SDS011;44154;45.506;-122.806;2023-01-13T08:02:18;14.90;;;9.65;;
50853;SDS011;44154;45.506;-122.806;2023-01-13T08:04:44;13.95;;;9.13;;
50853;SDS011;44154;45.506;-122.806;2023-01-13T08:07:10;13.07;;;8.93;;
50853;SDS011;44154;45.506;-122.806;2023-01-13T08:09:36;13.52;;;9.10;;
50853;SDS011;44154;45.506;-122.806;2023-01-13T08:12:02;9.57;;;8.60;;
50853;SDS011;44154;45.506;-122.806;2023-01-13T08:14:47;11.10;;;8.30;;
50853;SDS011;44154;45.506;-122.806;2023-01-13T08:17:15;10.35;;;8.95;;
50853;SDS011;44154;45.506;-122.806;2023-01-13T08:19:41;12.80;;;8.77;;
50853;SDS011;44154;45.506;-122.806;2023-01-13T08:22:07;10.10;;;7.90;;
50853;SDS011;44154;45.506;-122.806;2023-01-13T08:24:33;11.95;;;7.85;;
50853;SDS011;44154;45.506;-122.806;2023-01-13T08:26:59;8.73;;;7.80;;
50853;SDS011;44154;45.506;-122.806;2023-01-13T08:29:25;11.90;;;7.85;;
50853;SDS011;44154;45.506;-122.806;2023-01-13T08:31:51;12.05;;;6.55;;
50853;SDS011;44154;45.506;-122.806;2023-01-13T08:34:18;9.43;;;7.10;;
50853;SDS011;44154;45.506;-122.806;2023-01-13T08:36:44;10.38;;;7.05;;
50853;SDS011;44154;45.506;-122.806;2023-01-13T08:39:10;8.77;;;7.07;;
50853;SDS011;44154;45.506;-122.806;2023-01-13T08:41:36;8.77;;;7.00;;
50853;SDS011;44154;45.506;-122.806;2023-01-13T08:44:21;9.25;;;6.40;;
50853;SDS011;44154;45.506;-122.806;2023-01-13T08:46:48;9.30;;;7.10;;
50853;SDS011;44154;45.506;-122.806;2023-01-13T08:49:15;8.77;;;6.38;;
50853;SDS011;44154;45.506;-122.806;2023-01-13T08:51:42;9.25;;;6.22;;
50853;SDS011;44154;45.506;-122.806;2023-01-13T08:54:08;8.27;;;6.45;;
50853;SDS011;44154;45.506;-122.806;2023-01-13T08:56:35;6.97;;;6.07;;
50853;SDS011;44154;45.506;-122.806;2023-01-13T08:59:01;8.07;;;6.18;;
50853;SDS011;44154;45.506;-122.806;2023-01-13T09:01:27;9.18;;;6.25;;
50853;SDS011;44154;45.506;-122.806;2023-01-13T09:03:54;8.68;;;6.10;;
50853;SDS011;44154;45.506;-122.806;2023-01-13T09:06:20;7.03;;;5.72;;
50853;SDS011;44154;45.506;-122.806;2023-01-13T09:08:46;7.18;;;5.72;;
50853;SDS011;44154;45.506;-122.806;2023-01-13T09:11:25;7.53;;;5.68;;
50853;SDS011;44154;45.506;-122.806;2023-01-13T09:16:43;5.75;;;4.97;;
50853;SDS011;44154;45.506;-122.806;2023-01-13T09:19:09;6.68;;;5.32;;
50853;SDS011;44154;45.506;-122.806;2023-01-13T09:21:35;7.00;;;4.80;;
50853;SDS011;44154;45.506;-122.806;2023-01-13T09:24:01;6.18;;;5.25;;
50853;SDS011;44154;45.506;-122.806;2023-01-13T09:26:27;6.60;;;4.70;;
50853;SDS011;44154;45.506;-122.806;2023-01-13T09:28:54;6.55;;;4.97;;
50853;SDS011;44154;45.506;-122.806;2023-01-13T09:31:20;6.32;;;4.82;;
50853;SDS011;44154;45.506;-122.806;2023-01-13T09:33:46;5.97;;;4.40;;
50853;SDS011;44154;45.506;-122.806;2023-01-13T09:36:30;5.25;;;4.13;;
50853;SDS011;44154;45.506;-122.806;2023-01-13T09:38:56;6.10;;;4.15;;
50853;SDS011;44154;45.506;-122.806;2023-01-13T09:41:23;5.95;;;4.13;;
50853;SDS011;44154;45.506;-122.806;2023-01-13T09:44:16;5.22;;;4.07;;
50853;SDS011;44154;45.506;-122.806;2023-01-13T09:46:48;5.60;;;4.40;;
50853;SDS011;44154;45.506;-122.806;2023-01-13T09:49:22;6.70;;;4.90;;
50853;SDS011;44154;45.506;-122.806;2023-01-13T09:57:25;5.95;;;3.97;;
50853;SDS011;44154;45.506;-122.806;2023-01-13T09:59:56;5.32;;;4.40;;
50853;SDS011;44154;45.506;-122.806;2023-01-13T10:05:09;4.88;;;4.00;;
50853;SDS011;44154;45.506;-122.806;2023-01-13T10:07:37;6.80;;;4.18;;
50853;SDS011;44154;45.506;-122.806;2023-01-13T10:10:15;4.90;;;3.33;;
50853;SDS011;44154;45.506;-122.806;2023-01-13T10:12:46;4.07;;;3.10;;
50853;SDS011;44154;45.506;-122.806;2023-01-13T10:15:33;4.00;;;3.03;;
50853;SDS011;44154;45.506;-122.806;2023-01-13T10:18:43;4.93;;;3.38;;
50853;SDS011;44154;45.506;-122.806;2023-01-13T10:21:07;4.57;;;3.28;;
50853;SDS011;44154;45.506;-122.806;2023-01-13T10:23:54;4.72;;;2.90;;
50853;SDS011;44154;45.506;-122.806;2023-01-13T10:29:14;4.15;;;3.00;;
50853;SDS011;44154;45.506;-122.806;2023-01-13T10:31:53;4.03;;;2.95;;
50853;SDS011;44154;45.506;-122.806;2023-01-13T10:34:20;5.70;;;2.83;;
50853;SDS011;44154;45.506;-122.806;2023-01-13T10:37:09;3.97;;;3.00;;
50853;SDS011;44154;45.506;-122.806;2023-01-13T10:39:44;3.88;;;2.60;;
50853;SDS011;44154;45.506;-122.806;2023-01-13T10:42:18;3.30;;;2.58;;
50853;SDS011;44154;45.506;-122.806;2023-01-13T10:44:51;3.53;;;2.60;;
50853;SDS011;44154;45.506;-122.806;2023-01-13T10:47:19;3.78;;;2.63;;
50853;SDS011;44154;45.506;-122.806;2023-01-13T10:49:59;5.03;;;2.70;;
50853;SDS011;44154;45.506;-122.806;2023-01-13T10:52:39;3.17;;;2.10;;
50853;SDS011;44154;45.506;-122.806;2023-01-13T10:55:29;2.83;;;2.10;;
50853;SDS011;44154;45.506;-122.806;2023-01-13T10:58:19;3.42;;;2.10;;
50853;SDS011;44154;45.506;-122.806;2023-01-13T11:00:45;2.80;;;2.10;;
50853;SDS011;44154;45.506;-122.806;2023-01-13T11:05:54;2.30;;;2.00;;
50853;SDS011;44154;45.506;-122.806;2023-01-13T11:08:24;2.88;;;1.80;;
50853;SDS011;44154;45.506;-122.806;2023-01-13T11:10:56;2.28;;;2.00;;
50853;SDS011;44154;45.506;-122.806;2023-01-13T11:13:26;3.17;;;2.03;;
50853;SDS011;44154;45.506;-122.806;2023-01-13T11:16:37;3.13;;;2.10;;
50853;SDS011;44154;45.506;-122.806;2023-01-13T11:19:09;2.50;;;1.90;;
50853;SDS011;44154;45.506;-122.806;2023-01-13T11:21:46;3.35;;;1.80;;
50853;SDS011;44154;45.506;-122.806;2023-01-13T11:27:01;2.42;;;1.80;;
50853;SDS011;44154;45.506;-122.806;2023-01-13T11:32:22;1.75;;;1.42;;
50853;SDS011;44154;45.506;-122.806;2023-01-13T11:34:58;1.52;;;1.35;;
50853;SDS011;44154;45.506;-122.806;2023-01-13T11:37:32;2.22;;;1.52;;
50853;SDS011;44154;45.506;-122.806;2023-01-13T11:42:39;2.00;;;1.42;;
50853;SDS011;44154;45.506;-122.806;2023-01-13T11:48:08;2.20;;;1.30;;
50853;SDS011;44154;45.506;-122.806;2023-01-13T11:50:40;2.55;;;1.48;;
50853;SDS011;44154;45.506;-122.806;2023-01-13T11:53:41;1.90;;;1.40;;
50853;SDS011;44154;45.506;-122.806;2023-01-13T11:59:16;2.65;;;1.50;;
50853;SDS011;44154;45.506;-122.806;2023-01-13T12:04:27;2.25;;;1.35;;
50853;SDS011;44154;45.506;-122.806;2023-01-13T12:07:16;1.80;;;1.20;;
50853;SDS011;44154;45.506;-122.806;2023-01-13T12:15:17;1.55;;;1.15;;
50853;SDS011;44154;45.506;-122.806;2023-01-13T12:26:11;2.03;;;1.20;;
50853;SDS011;44154;45.506;-122.806;2023-01-13T12:31:07;1.50;;;1.02;;
50853;SDS011;44154;45.506;-122.806;2023-01-13T12:45:32;1.58;;;1.10;;
50853;SDS011;44154;45.506;-122.806;2023-01-13T12:47:39;1.48;;;0.98;;
50853;SDS011;44154;45.506;-122.806;2023-01-13T12:52:54;1.27;;;0.90;;
50853;SDS011;44154;45.506;-122.806;2023-01-13T12:55:39;1.95;;;0.80;;
50853;SDS011;44154;45.506;-122.806;2023-01-13T13:05:43;1.23;;;0.80;;
50853;SDS011;44154;45.506;-122.806;2023-01-13T13:08:41;1.85;;;1.10;;
50853;SDS011;44154;45.506;-122.806;2023-01-13T13:13:55;2.10;;;0.80;;
50853;SDS011;44154;45.506;-122.806;2023-01-13T13:24:36;1.17;;;0.80;;
50853;SDS011;44154;45.506;-122.806;2023-01-13T13:27:17;0.90;;;0.60;;
50853;SDS011;44154;45.506;-122.806;2023-01-13T13:38:38;1.67;;;0.70;;
50853;SDS011;44154;45.506;-122.806;2023-01-13T13:41:24;1.15;;;0.55;;
50853;SDS011;44154;45.506;-122.806;2023-01-13T13:44:13;1.08;;;0.55;;
50853;SDS011;44154;45.506;-122.806;2023-01-13T13:47:02;1.05;;;0.80;;
50853;SDS011;44154;45.506;-122.806;2023-01-13T13:49:44;1.08;;;0.60;;
50853;SDS011;44154;45.506;-122.806;2023-01-13T13:54:44;1.65;;;0.70;;
50853;SDS011;44154;45.506;-122.806;2023-01-13T13:59:59;0.55;;;0.50;;
50853;SDS011;44154;45.506;-122.806;2023-01-13T14:03:03;0.52;;;0.45;;
50853;SDS011;44154;45.506;-122.806;2023-01-13T14:05:33;0.75;;;0.52;;
50853;SDS011;44154;45.506;-122.806;2023-01-13T14:08:22;0.80;;;0.60;;
50853;SDS011;44154;45.506;-122.806;2023-01-13T14:10:46;0.80;;;0.47;;
50853;SDS011;44154;45.506;-122.806;2023-01-13T14:13:14;0.88;;;0.52;;
50853;SDS011;44154;45.506;-122.806;2023-01-13T14:15:46;0.60;;;0.60;;
50853;SDS011;44154;45.506;-122.806;2023-01-13T14:18:16;0.73;;;0.40;;
50853;SDS011;44154;45.506;-122.806;2023-01-13T14:21:04;1.15;;;0.50;;
50853;SDS011;44154;45.506;-122.806;2023-01-13T14:23:45;0.95;;;0.50;;
50853;SDS011;44154;45.506;-122.806;2023-01-13T14:26:27;0.73;;;0.60;;
50853;SDS011;44154;45.506;-122.806;2023-01-13T14:28:55;0.52;;;0.38;;
50853;SDS011;44154;45.506;-122.806;2023-01-13T14:31:23;0.50;;;0.40;;
50853;SDS011;44154;45.506;-122.806;2023-01-13T14:33:51;0.93;;;0.50;;
50853;SDS011;44154;45.506;-122.806;2023-01-13T14:36:20;1.10;;;0.50;;
50853;SDS011;44154;45.506;-122.806;2023-01-13T14:39:33;0.63;;;0.40;;
50853;SDS011;44154;45.506;-122.806;2023-01-13T14:46:57;0.63;;;0.40;;
50853;SDS011;44154;45.506;-122.806;2023-01-13T14:57:34;0.60;;;0.47;;
50853;SDS011;44154;45.506;-122.806;2023-01-13T15:02:41;0.60;;;0.40;;
50853;SDS011;44154;45.506;-122.806;2023-01-13T15:07:54;0.57;;;0.28;;
50853;SDS011;44154;45.506;-122.806;2023-01-13T15:10:21;0.47;;;0.30;;
50853;SDS011;44154;45.506;-122.806;2023-01-13T15:12:50;0.43;;;0.30;;
50853;SDS011;44154;45.506;-122.806;2023-01-13T15:15:22;0.80;;;0.40;;
50853;SDS011;44154;45.506;-122.806;2023-01-13T15:17:49;0.95;;;0.20;;
50853;SDS011;44154;45.506;-122.806;2023-01-13T15:20:17;0.35;;;0.30;;
50853;SDS011;44154;45.506;-122.806;2023-01-13T15:22:46;0.77;;;0.30;;
50853;SDS011;44154;45.506;-122.806;2023-01-13T15:25:13;0.60;;;0.20;;
50853;SDS011;44154;45.506;-122.806;2023-01-13T15:27:39;1.25;;;0.20;;
50853;SDS011;44154;45.506;-122.806;2023-01-13T15:32:44;0.30;;;0.20;;
50853;SDS011;44154;45.506;-122.806;2023-01-13T15:35:14;0.30;;;0.28;;
50853;SDS011;44154;45.506;-122.806;2023-01-13T15:37:41;1.40;;;0.30;;
50853;SDS011;44154;45.506;-122.806;2023-01-13T15:40:19;0.98;;;0.30;;
50853;SDS011;44154;45.506;-122.806;2023-01-13T15:42:47;0.82;;;0.35;;
50853;SDS011;44154;45.506;-122.806;2023-01-13T15:45:33;0.70;;;0.20;;
50853;SDS011;44154;45.506;-122.806;2023-01-13T15:48:20;3.05;;;0.40;;
50853;SDS011;44154;45.506;-122.806;2023-01-13T15:50:47;3.63;;;0.50;;
50853;SDS011;44154;45.506;-122.806;2023-01-13T15:53:13;4.50;;;0.57;;
50853;SDS011;44154;45.506;-122.806;2023-01-13T15:55:43;2.30;;;0.32;;
50853;SDS011;44154;45.506;-122.806;2023-01-13T15:58:15;0.85;;;0.40;;
50853;SDS011;44154;45.506;-122.806;2023-01-13T16:00:45;1.15;;;0.30;;
50853;SDS011;44154;45.506;-122.806;2023-01-13T16:03:11;1.55;;;0.45;;
50853;SDS011;44154;45.506;-122.806;2023-01-13T16:05:39;1.52;;;0.30;;
50853;SDS011;44154;45.506;-122.806;2023-01-13T16:08:09;2.10;;;1.00;;
50853;SDS011;44154;45.506;-122.806;2023-01-13T16:10:42;0.80;;;0.40;;
50853;SDS011;44154;45.506;-122.806;2023-01-13T16:13:12;2.22;;;0.22;;
50853;SDS011;44154;45.506;-122.806;2023-01-13T16:15:41;1.17;;;0.20;;
50853;SDS011;44154;45.506;-122.806;2023-01-13T16:18:13;2.10;;;0.40;;
50853;SDS011;44154;45.506;-122.806;2023-01-13T16:20:44;0.98;;;0.20;;
50853;SDS011;44154;45.506;-122.806;2023-01-13T16:23:11;0.90;;;0.30;;
50853;SDS011;44154;45.506;-122.806;2023-01-13T16:25:38;1.92;;;0.25;;
50853;SDS011;44154;45.506;-122.806;2023-01-13T16:28:10;2.70;;;0.82;;
50853;SDS011;44154;45.506;-122.806;2023-01-13T16:30:48;0.65;;;0.22;;
50853;SDS011;44154;45.506;-122.806;2023-01-13T16:33:14;1.00;;;0.30;;
50853;SDS011;44154;45.506;-122.806;2023-01-13T16:35:41;2.10;;;0.40;;
50853;SDS011;44154;45.506;-122.806;2023-01-13T16:38:16;1.20;;;0.40;;
50853;SDS011;44154;45.506;-122.806;2023-01-13T16:40:43;0.75;;;0.30;;
50853;SDS011;44154;45.506;-122.806;2023-01-13T16:43:12;0.60;;;0.30;;
50853;SDS011;44154;45.506;-122.806;2023-01-13T16:45:39;0.63;;;0.20;;
50853;SDS011;44154;45.506;-122.806;2023-01-13T16:48:08;0.60;;;0.30;;
50853;SDS011;44154;45.506;-122.806;2023-01-13T16:50:44;2.17;;;0.28;;
50853;SDS011;44154;45.506;-122.806;2023-01-13T16:53:11;0.55;;;0.30;;
50853;SDS011;44154;45.506;-122.806;2023-01-13T16:55:38;1.08;;;0.22;;
50853;SDS011;44154;45.506;-122.806;2023-01-13T16:58:05;0.30;;;0.20;;
50853;SDS011;44154;45.506;-122.806;2023-01-13T17:00:36;0.98;;;0.20;;
50853;SDS011;44154;45.506;-122.806;2023-01-13T17:03:02;1.77;;;0.30;;
50853;SDS011;44154;45.506;-122.806;2023-01-13T17:05:29;0.98;;;0.38;;
50853;SDS011;44154;45.506;-122.806;2023-01-13T17:07:55;0.32;;;0.20;;
50853;SDS011;44154;45.506;-122.806;2023-01-13T17:10:22;0.52;;;0.20;;
50853;SDS011;44154;45.506;-122.806;2023-01-13T17:12:49;0.93;;;0.20;;
50853;SDS011;44154;45.506;-122.806;2023-01-13T17:15:16;0.77;;;0.30;;
50853;SDS011;44154;45.506;-122.806;2023-01-13T17:17:43;1.02;;;0.20;;
50853;SDS011;44154;45.506;-122.806;2023-01-13T17:22:43;1.75;;;0.57;;
50853;SDS011;44154;45.506;-122.806;2023-01-13T17:25:10;0.98;;;0.30;;
50853;SDS011;44154;45.506;-122.806;2023-01-13T17:27:38;1.52;;;0.30;;
50853;SDS011;44154;45.506;-122.806;2023-01-13T17:30:05;1.67;;;0.30;;